Time;durP1;ratioP1;P1;durP2;ratioP2;P2;SDS_P1;SDS_P2;PMS_P1;PMS_P2;Temp;Humidity;BMP_temperature;BMP_pressure;BME280_temperature;BME280_humidity;BME280_pressure;Samples;Min_cycle;Max_cycle;Signal;HPM_P1;HPM_P2
2022/01/04 00:01:38;;;;;;;24.23;9.02;;;;;;;-9.23;94.68;98022.44;4998976;28;20445;-66
2022/01/04 00:04:03;;;;;;;22.50;7.70;;;;;;;-9.24;94.92;98012.91;5014622;28;20038;-65
2022/01/04 00:06:29;;;;;;;24.48;9.07;;;;;;;-9.00;95.29;98051.00;5033165;28;20045;-65
2022/01/04 00:08:59;;;;;;;23.17;9.23;;;;;;;-8.95;95.06;98050.00;5015176;28;20049;-66
2022/01/04 00:11:43;;;;;;;19.00;6.85;;;;;;;-8.94;95.55;98049.91;5016566;28;20046;-66
2022/01/04 00:14:09;;;;;;;18.67;6.47;;;;;;;-8.98;95.32;98054.44;5033100;28;20050;-66
2022/01/04 00:16:35;;;;;;;21.92;8.13;;;;;;;-8.98;95.30;98051.81;5014795;28;20120;-66
2022/01/04 00:19:01;;;;;;;20.85;8.30;;;;;;;-8.99;95.25;98052.75;5014555;28;20139;-66
2022/01/04 00:21:26;;;;;;;20.83;7.22;;;;;;;-9.31;95.36;97998.41;4998281;28;20044;-66
2022/01/04 00:23:52;;;;;;;21.13;7.63;;;;;;;-8.88;95.34;98065.34;4982006;28;20045;-66
2022/01/04 00:26:18;;;;;;;21.65;7.80;;;;;;;-8.87;94.93;98055.72;5014633;28;20048;-66
2022/01/04 00:28:44;;;;;;;20.25;8.05;;;;;;;-8.94;94.89;98049.06;5014662;28;20045;-66
2022/01/04 00:31:09;;;;;;;19.85;7.63;;;;;;;-8.93;95.02;98055.97;5014572;28;20060;-67
2022/01/04 00:33:36;;;;;;;19.30;7.25;;;;;;;-8.92;95.25;98055.94;5014415;28;20049;-65
2022/01/04 00:36:03;;;;;;;23.27;9.60;;;;;;;-8.86;95.67;98060.00;5014497;28;20050;-65
2022/01/04 00:38:29;;;;;;;22.27;9.27;;;;;;;-8.87;95.39;98055.72;4998375;28;20103;-66
2022/01/04 00:40:55;;;;;;;22.23;8.65;;;;;;;-8.92;95.09;98052.44;5014847;28;20354;-70
2022/01/04 00:43:21;;;;;;;22.98;7.70;;;;;;;-9.18;95.04;98015.22;5031383;28;20041;-66
2022/01/04 00:45:47;;;;;;;21.08;7.97;;;;;;;-8.94;95.23;98054.28;5014056;28;20542;-66
2022/01/04 00:50:38;;;;;;;21.05;7.82;;;;;;;-8.88;94.75;98070.56;5014027;28;20141;-66
2022/01/04 00:53:06;;;;;;;25.27;8.63;;;;;;;-8.80;94.61;98071.06;5031474;28;20450;-66
2022/01/04 00:55:32;;;;;;;20.65;7.88;;;;;;;-8.77;94.88;98085.78;5014814;28;20040;-66
2022/01/04 00:57:58;;;;;;;22.00;8.25;;;;;;;-8.79;94.20;98087.63;5014027;28;20037;-66
2022/01/04 01:00:24;;;;;;;21.13;8.20;;;;;;;-8.93;93.99;98062.06;5014159;28;20072;-66
2022/01/04 01:02:50;;;;;;;23.85;8.40;;;;;;;-8.86;94.53;98067.88;5014051;28;20115;-66
2022/01/04 01:05:17;;;;;;;20.45;8.35;;;;;;;-8.90;94.43;98076.78;5032079;28;20037;-69
2022/01/04 01:07:43;;;;;;;25.15;9.90;;;;;;;-8.87;94.50;98081.91;5014258;28;20099;-66
2022/01/04 01:12:56;;;;;;;27.48;10.32;;;;;;;-9.00;94.79;98060.63;5001049;28;20045;-67
2022/01/04 01:15:21;;;;;;;29.70;11.10;;;;;;;-9.16;95.13;98050.03;4982180;28;20068;-66
2022/01/04 01:17:47;;;;;;;31.55;11.90;;;;;;;-9.02;95.38;98081.66;5014399;28;20497;-67
2022/01/04 01:20:14;;;;;;;32.35;10.40;;;;;;;-8.95;95.54;98086.63;5014057;28;20041;-66
2022/01/04 01:22:41;;;;;;;25.02;9.68;;;;;;;-8.94;95.65;98080.47;5014139;28;20037;-66
2022/01/04 01:25:08;;;;;;;29.95;10.75;;;;;;;-9.43;95.23;97993.69;5013796;28;20465;-66
2022/01/04 01:27:34;;;;;;;25.95;9.32;;;;;;;-9.16;95.32;98050.03;5013835;28;20052;-66
2022/01/04 01:30:00;;;;;;;25.70;8.95;;;;;;;-8.96;94.82;98077.06;4997428;28;20441;-65
2022/01/04 01:32:26;;;;;;;22.88;8.85;;;;;;;-8.94;94.98;98089.16;5031137;28;20323;-66
2022/01/04 01:34:52;;;;;;;22.23;8.13;;;;;;;-8.94;95.04;98085.72;5031604;28;20053;-66
2022/01/04 01:37:18;;;;;;;19.17;7.65;;;;;;;-9.08;94.92;98068.00;4981038;28;20044;-66
2022/01/04 01:39:44;;;;;;;22.38;8.20;;;;;;;-8.98;95.10;98080.59;5029895;28;20048;-66
2022/01/04 01:42:09;;;;;;;23.52;9.55;;;;;;;-8.89;94.90;98096.81;4997270;28;20209;-66
2022/01/04 01:44:36;;;;;;;20.40;9.15;;;;;;;-8.96;94.79;98084.91;5031329;28;20038;-66
2022/01/04 01:47:02;;;;;;;25.73;8.95;;;;;;;-8.84;94.91;98089.63;5013568;28;20075;-66
2022/01/04 01:49:28;;;;;;;22.90;8.32;;;;;;;-8.82;94.38;98090.38;5013080;28;20045;-66
2022/01/04 01:51:54;;;;;;;25.25;10.15;;;;;;;-8.91;94.59;98080.34;5013332;28;20103;-67
2022/01/04 01:54:20;;;;;;;27.23;8.27;;;;;;;-9.07;94.37;98054.81;5013261;28;20065;-65
2022/01/04 01:56:46;;;;;;;22.35;7.88;;;;;;;-8.86;93.74;98083.59;5012929;28;20064;-66
2022/01/04 01:59:13;;;;;;;31.75;11.15;;;;;;;-8.79;94.01;98090.25;5030918;28;20053;-67
2022/01/04 02:01:39;;;;;;;27.42;9.00;;;;;;;-8.91;94.04;98080.34;5030547;28;20045;-66
2022/01/04 02:04:05;;;;;;;24.48;9.60;;;;;;;-8.82;93.89;98098.22;5030015;28;20056;-65
2022/01/04 02:06:31;;;;;;;24.92;9.35;;;;;;;-8.81;94.01;98092.06;4996490;28;20453;-67
2022/01/04 02:08:58;;;;;;;24.50;9.20;;;;;;;-8.80;93.74;98088.56;5012779;28;20056;-67
2022/01/04 02:11:28;;;;;;;27.50;8.95;;;;;;;-8.80;93.43;98093.78;5012894;28;20048;-65
2022/01/04 02:13:55;;;;;;;27.17;9.95;;;;;;;-9.07;93.27;98054.81;5031477;28;20486;-66
2022/01/04 02:16:22;;;;;;;26.98;10.38;;;;;;;-8.78;93.59;98092.78;5014209;28;20126;-65
2022/01/04 02:18:48;;;;;;;26.38;10.40;;;;;;;-8.81;93.20;98095.56;5013532;28;20061;-66
2022/01/04 02:21:13;;;;;;;28.20;9.70;;;;;;;-8.81;93.36;98098.19;4997388;28;20060;-66
2022/01/04 02:23:39;;;;;;;30.10;11.00;;;;;;;-8.79;93.07;98098.09;5029150;28;20049;-66
2022/01/04 02:26:05;;;;;;;32.28;11.20;;;;;;;-8.81;93.10;98099.91;5013208;28;20041;-68
2022/01/04 02:28:31;;;;;;;39.03;12.60;;;;;;;-8.83;93.31;98101.78;5030348;28;20049;-66
2022/01/04 02:30:57;;;;;;;46.38;14.80;;;;;;;-8.84;93.45;98105.31;5012636;28;20046;-65
2022/01/04 02:33:23;;;;;;;38.75;14.07;;;;;;;-8.99;94.31;98107.72;5012675;28;20382;-66
2022/01/04 02:35:49;;;;;;;42.85;13.35;;;;;;;-9.15;94.19;98077.03;5030599;28;20049;-66
2022/01/04 02:38:14;;;;;;;40.70;13.98;;;;;;;-8.95;94.07;98100.56;4980236;28;20111;-66
2022/01/04 02:40:40;;;;;;;39.45;15.05;;;;;;;-8.89;93.74;98099.44;4996548;28;20049;-66
2022/01/04 02:43:06;;;;;;;36.13;13.45;;;;;;;-8.99;94.23;98099.84;5013371;28;20084;-66
2022/01/04 02:45:32;;;;;;;36.10;13.63;;;;;;;-9.00;94.19;98107.75;4979812;28;20045;-66
2022/01/04 02:47:58;;;;;;;36.40;13.02;;;;;;;-9.21;93.88;98067.72;5012762;28;20124;-66
2022/01/04 02:50:24;;;;;;;29.60;9.65;;;;;;;-8.95;93.97;98104.97;5012547;28;20136;-66
2022/01/04 02:52:50;;;;;;;34.65;12.70;;;;;;;-9.07;94.34;98090.63;4996017;28;20140;-66
2022/01/04 02:55:17;;;;;;;33.08;10.93;;;;;;;-9.14;94.46;98082.22;5012562;28;20045;-66
2022/01/04 02:57:43;;;;;;;26.08;8.93;;;;;;;-9.22;94.07;98082.53;4964429;28;20177;-66
2022/01/04 03:00:12;;;;;;;35.10;12.23;;;;;;;-9.26;94.53;98069.66;5013024;28;20203;-66
2022/01/04 03:02:38;;;;;;;36.53;12.35;;;;;;;-8.99;94.52;98106.88;5013114;28;20458;-67
2022/01/04 03:05:04;;;;;;;39.08;13.98;;;;;;;-9.11;94.31;98089.91;5031423;28;20049;-66
2022/01/04 03:07:30;;;;;;;31.02;10.20;;;;;;;-8.99;94.30;98120.78;4981680;28;20111;-66
2022/01/04 03:09:56;;;;;;;29.63;11.32;;;;;;;-9.26;94.34;98082.75;4996530;28;20041;-66
2022/01/04 03:12:22;;;;;;;27.98;11.38;;;;;;;-9.03;94.31;98124.47;4983012;28;20037;-69
2022/01/04 03:14:48;;;;;;;33.13;11.73;;;;;;;-9.01;94.33;98120.00;5017011;28;20420;-67
2022/01/04 03:17:13;;;;;;;29.58;9.73;;;;;;;-8.96;94.10;98129.41;5038001;28;20041;-66
2022/01/04 03:19:39;;;;;;;34.28;11.38;;;;;;;-9.19;94.18;98094.66;5033685;28;20521;-66
2022/01/04 03:22:05;;;;;;;34.85;12.48;;;;;;;-9.01;93.79;98133.09;5034139;28;20049;-66
2022/01/04 03:24:31;;;;;;;29.73;11.02;;;;;;;-9.20;93.88;98111.28;4999651;28;20071;-67
2022/01/04 03:26:57;;;;;;;29.85;11.60;;;;;;;-8.94;94.01;98159.00;5016293;28;20167;-66
2022/01/04 03:29:24;;;;;;;22.17;8.85;;;;;;;-8.97;94.08;98149.50;5015783;28;20443;-67
2022/01/04 03:31:50;;;;;;;27.92;9.73;;;;;;;-8.96;93.84;98152.97;5016260;28;20088;-66
2022/01/04 03:34:17;;;;;;;27.80;10.18;;;;;;;-8.96;93.69;98150.34;5033584;28;20136;-66
2022/01/04 03:36:42;;;;;;;26.25;9.85;;;;;;;-9.22;93.77;98107.84;5015851;28;20041;-66
2022/01/04 03:39:10;;;;;;;26.70;9.55;;;;;;;-8.91;94.07;98153.63;5015566;28;20413;-66
2022/01/04 03:41:39;;;;;;;29.33;11.05;;;;;;;-9.00;94.57;98145.25;4999433;28;20064;-66
2022/01/04 03:44:06;;;;;;;27.50;10.52;;;;;;;-8.96;94.49;98161.66;5015696;28;20421;-66
2022/01/04 03:46:32;;;;;;;31.05;10.88;;;;;;;-8.99;94.23;98170.53;4999310;28;20046;-66
2022/01/04 03:48:58;;;;;;;26.55;10.50;;;;;;;-9.05;94.23;98162.94;5015489;28;20648;-66
2022/01/04 03:51:24;;;;;;;28.40;10.45;;;;;;;-8.97;94.03;98159.97;5015534;28;20068;-66
2022/01/04 03:53:49;;;;;;;31.52;11.07;;;;;;;-8.90;94.04;98160.56;5015494;28;20076;-67
2022/01/04 03:56:15;;;;;;;29.17;10.27;;;;;;;-8.94;93.84;98167.72;5015225;28;20041;-66
2022/01/04 03:58:41;;;;;;;30.20;9.73;;;;;;;-8.94;93.91;98164.25;4998714;28;20125;-66
2022/01/04 04:01:07;;;;;;;27.90;9.05;;;;;;;-8.96;93.95;98166.06;4998655;28;20447;-65
2022/01/04 04:03:33;;;;;;;28.50;10.10;;;;;;;-9.03;93.54;98160.25;5015143;28;20050;-66
2022/01/04 04:05:59;;;;;;;24.30;8.65;;;;;;;-9.23;93.60;98133.19;5032680;28;20050;-66
2022/01/04 04:08:25;;;;;;;22.35;7.07;;;;;;;-9.05;93.75;98167.31;4982739;28;20191;-66
2022/01/04 04:10:51;;;;;;;25.88;9.60;;;;;;;-9.06;93.90;98166.47;5014781;28;20041;-66
2022/01/04 04:13:17;;;;;;;21.27;7.15;;;;;;;-9.12;93.42;98158.88;5014920;28;20045;-66
2022/01/04 04:15:44;;;;;;;17.45;6.90;;;;;;;-9.06;93.70;98166.47;5014922;28;20049;-66
2022/01/04 04:18:10;;;;;;;15.73;5.50;;;;;;;-9.09;93.51;98161.38;5014807;28;20061;-65
2022/01/04 04:20:37;;;;;;;21.63;5.45;;;;;;;-9.19;93.16;98146.97;5032653;28;20037;-66
2022/01/04 04:23:04;;;;;;;25.50;7.97;;;;;;;-9.16;93.41;98157.31;5014813;28;20155;-66
2022/01/04 04:25:30;;;;;;;24.83;7.53;;;;;;;-9.05;93.50;98164.72;5031109;28;20132;-66
2022/01/04 04:27:56;;;;;;;26.88;7.60;;;;;;;-9.07;93.35;98156.06;5013981;28;20057;-66
2022/01/04 04:30:22;;;;;;;22.98;8.07;;;;;;;-9.03;93.38;98165.47;5031184;28;20045;-66
2022/01/04 04:32:48;;;;;;;19.98;7.15;;;;;;;-9.11;93.41;98160.56;5014660;28;20128;-66
2022/01/04 04:35:14;;;;;;;24.30;7.80;;;;;;;-9.00;93.48;98181.06;5014246;28;20092;-66
2022/01/04 04:37:40;;;;;;;17.80;7.00;;;;;;;-9.01;93.13;98172.34;5014625;28;20049;-66
2022/01/04 04:40:07;;;;;;;21.02;7.15;;;;;;;-9.20;93.11;98131.34;4998005;28;20041;-66
2022/01/04 04:42:33;;;;;;;23.38;7.45;;;;;;;-8.95;93.19;98181.72;5014112;28;20044;-66
2022/01/04 04:44:59;;;;;;;24.75;8.52;;;;;;;-9.03;93.12;98171.59;5030817;28;20061;-66
2022/01/04 04:47:25;;;;;;;30.33;9.77;;;;;;;-9.19;93.14;98152.22;5015912;28;20059;-65
2022/01/04 04:49:52;;;;;;;22.15;9.05;;;;;;;-9.01;93.59;98180.19;5015721;28;20498;-66
2022/01/04 04:52:18;;;;;;;23.95;9.43;;;;;;;-9.27;93.29;98141.22;5033378;28;20080;-66
2022/01/04 04:54:44;;;;;;;29.08;9.50;;;;;;;-9.12;93.43;98177.19;4998966;28;20122;-66
2022/01/04 04:57:10;;;;;;;28.45;10.48;;;;;;;-9.34;93.75;98142.41;5015142;28;20529;-65
2022/01/04 04:59:35;;;;;;;24.42;7.88;;;;;;;-9.05;93.99;98186.50;4998703;28;20490;-66
2022/01/04 05:02:01;;;;;;;36.30;11.40;;;;;;;-9.08;94.26;98194.47;5032035;28;20045;-66
2022/01/04 05:04:27;;;;;;;34.85;10.98;;;;;;;-9.10;94.98;98196.31;5013781;28;20041;-66
2022/01/04 05:06:53;;;;;;;36.20;10.75;;;;;;;-9.29;95.03;98170.06;5031650;28;20037;-65
2022/01/04 05:09:19;;;;;;;30.50;10.90;;;;;;;-9.13;95.15;98201.69;4981280;28;20060;-67
2022/01/04 05:11:46;;;;;;;32.90;11.07;;;;;;;-9.30;95.45;98164.91;5014081;28;20124;-66
2022/01/04 05:14:12;;;;;;;29.08;9.38;;;;;;;-9.04;95.02;98203.03;5014168;28;20045;-66
2022/01/04 05:16:37;;;;;;;34.78;11.13;;;;;;;-9.01;95.08;98200.28;5013986;28;20057;-66
2022/01/04 05:19:03;;;;;;;37.72;10.65;;;;;;;-9.01;94.90;98203.75;5013527;28;20045;-66
2022/01/04 05:21:29;;;;;;;29.30;10.30;;;;;;;-9.16;94.58;98180.88;5013804;28;20164;-68
2022/01/04 05:23:55;;;;;;;29.83;11.95;;;;;;;-9.24;95.08;98201.28;5031692;28;20369;-66
2022/01/04 05:26:21;;;;;;;33.05;12.05;;;;;;;-9.40;96.16;98210.69;4997225;28;20420;-65
2022/01/04 05:28:47;;;;;;;29.42;9.60;;;;;;;-9.43;96.78;98214.28;4997282;28;20456;-66
2022/01/04 05:31:13;;;;;;;34.95;11.50;;;;;;;-9.38;97.14;98219.31;5029853;28;20053;-66
2022/01/04 05:33:40;;;;;;;29.27;11.00;;;;;;;-9.38;97.01;98221.94;5013754;28;20045;-67
2022/01/04 05:36:06;;;;;;;34.10;12.63;;;;;;;-9.44;97.14;98232.66;4997167;28;20080;-67
2022/01/04 05:38:32;;;;;;;27.23;8.95;;;;;;;-9.44;97.55;98227.41;5031153;28;20091;-66
2022/01/04 05:40:58;;;;;;;34.88;11.35;;;;;;;-9.43;97.51;98229.09;5031051;28;20081;-66
2022/01/04 05:43:24;;;;;;;29.30;11.18;;;;;;;-9.43;97.14;98229.09;4980725;28;20088;-66
2022/01/04 05:45:50;;;;;;;25.40;7.93;;;;;;;-9.42;97.23;98199.44;4996595;28;20045;-66
2022/01/04 05:48:18;;;;;;;32.50;10.05;;;;;;;-9.28;96.66;98218.03;4996837;28;20470;-66
2022/01/04 05:50:44;;;;;;;31.70;10.45;;;;;;;-9.57;96.95;98180.00;4980272;28;20045;-66
2022/01/04 05:53:10;;;;;;;30.45;11.43;;;;;;;-9.37;97.27;98218.41;4980580;28;20095;-66
2022/01/04 05:55:36;;;;;;;28.48;9.50;;;;;;;-9.37;96.63;98215.78;4996563;28;20358;-66
2022/01/04 05:58:02;;;;;;;38.80;13.15;;;;;;;-9.49;97.63;98204.91;4996608;28;20091;-66
2022/01/04 06:00:27;;;;;;;39.20;13.05;;;;;;;-9.70;98.14;98184.88;5012944;28;20475;-67
2022/01/04 06:02:54;;;;;;;34.90;11.18;;;;;;;-9.87;98.37;98161.16;5030531;28;20045;-67
2022/01/04 06:05:19;;;;;;;37.53;12.00;;;;;;;-9.45;98.47;98223.09;4980682;28;20146;-66
2022/01/04 06:07:45;;;;;;;30.17;10.05;;;;;;;-9.38;97.84;98232.41;5012476;28;20071;-66
2022/01/04 06:10:13;;;;;;;29.15;10.38;;;;;;;-9.42;97.90;98226.44;4980212;28;20145;-66
2022/01/04 06:15:09;;;;;;;31.50;11.15;;;;;;;-9.53;97.27;98210.34;5013131;28;20477;-66
2022/01/04 06:17:41;;;;;;;32.55;12.32;;;;;;;-9.34;97.57;98244.44;5012961;28;20124;-66
2022/01/04 06:20:13;;;;;;;41.03;13.65;;;;;;;-9.53;97.24;98203.34;5030431;28;20041;-66
2022/01/04 06:22:40;;;;;;;30.85;9.65;;;;;;;-9.23;96.65;98242.22;5033262;28;20104;-67
2022/01/04 06:25:08;;;;;;;19.65;6.68;;;;;;;-9.21;95.99;98240.41;4996790;28;20083;-66
2022/01/04 06:27:34;;;;;;;27.13;10.15;;;;;;;-9.23;96.11;98252.69;5012942;28;20386;-66
2022/01/04 06:30:01;;;;;;;31.50;9.52;;;;;;;-9.23;95.57;98250.06;4996662;28;20062;-67
2022/01/04 06:32:27;;;;;;;34.65;11.18;;;;;;;-9.28;95.94;98260.75;5012916;28;20120;-70
2022/01/04 06:34:53;;;;;;;32.08;10.68;;;;;;;-9.19;95.05;98264.72;5030120;28;20358;-67
2022/01/04 06:37:18;;;;;;;38.55;12.45;;;;;;;-9.31;95.94;98267.88;4996392;28;20041;-66
2022/01/04 06:39:45;;;;;;;33.40;9.63;;;;;;;-9.28;95.79;98252.03;4980053;28;20037;-67
2022/01/04 06:42:14;;;;;;;32.15;10.82;;;;;;;-9.28;95.16;98249.44;5012393;28;20061;-66
2022/01/04 06:44:43;;;;;;;40.38;12.27;;;;;;;-9.12;94.58;98276.66;4996907;28;20069;-67
2022/01/04 06:47:10;;;;;;;35.42;11.73;;;;;;;-9.55;94.38;98196.47;5030487;28;20041;-66
2022/01/04 06:49:37;;;;;;;38.15;12.05;;;;;;;-9.32;94.23;98237.41;5012525;28;20050;-67
2022/01/04 06:52:03;;;;;;;38.97;13.27;;;;;;;-9.39;94.50;98267.34;5034014;28;20049;-66
2022/01/04 06:54:29;;;;;;;39.70;13.75;;;;;;;-9.58;94.79;98241.91;5034174;28;20122;-67
2022/01/04 06:56:55;;;;;;;34.25;11.98;;;;;;;-9.26;94.62;98281.59;5000540;28;20053;-66
2022/01/04 06:59:21;;;;;;;33.70;12.80;;;;;;;-9.30;94.23;98293.97;4968207;28;20041;-67
2022/01/04 07:01:47;;;;;;;44.38;16.15;;;;;;;-9.53;94.80;98273.97;4999907;28;20527;-67
2022/01/04 07:04:14;;;;;;;36.78;12.20;;;;;;;-9.19;94.44;98290.91;4983401;28;20505;-66
2022/01/04 07:06:40;;;;;;;36.75;11.10;;;;;;;-9.19;94.02;98274.34;4999883;28;20048;-67
2022/01/04 07:09:07;;;;;;;24.23;9.10;;;;;;;-9.08;93.69;98298.31;4999841;28;20044;-67
2022/01/04 07:11:34;;;;;;;32.63;10.82;;;;;;;-9.23;93.26;98278.88;4983621;28;20065;-67
2022/01/04 07:14:00;;;;;;;33.28;11.15;;;;;;;-9.35;93.63;98263.69;4983435;28;20050;-67
2022/01/04 07:16:26;;;;;;;36.42;11.48;;;;;;;-9.33;94.22;98274.91;5015887;28;20045;-67
2022/01/04 07:18:52;;;;;;;33.22;11.52;;;;;;;-9.06;94.08;98299.97;5015886;28;20046;-67
2022/01/04 07:21:19;;;;;;;32.42;9.43;;;;;;;-8.97;93.11;98298.72;4999097;28;20057;-66
2022/01/04 07:23:48;;;;;;;27.63;9.40;;;;;;;-8.76;92.59;98310.91;5016073;28;20377;-66
2022/01/04 07:26:16;;;;;;;29.30;9.40;;;;;;;-8.73;92.01;98304.72;5015879;28;20052;-67
2022/01/04 07:28:45;;;;;;;32.65;10.50;;;;;;;-8.70;91.19;98308.94;5016093;28;20390;-66
2022/01/04 07:31:12;;;;;;;33.08;9.43;;;;;;;-8.68;91.31;98313.22;4982977;28;20503;-67
2022/01/04 07:33:38;;;;;;;32.00;11.65;;;;;;;-8.71;90.93;98318.56;5015700;28;20045;-67
2022/01/04 07:36:06;;;;;;;34.03;11.25;;;;;;;-8.85;91.60;98315.69;4983083;28;20052;-67
2022/01/04 07:38:33;;;;;;;30.98;9.73;;;;;;;-9.01;90.82;98279.69;5015490;28;20068;-68
2022/01/04 07:40:59;;;;;;;28.00;9.73;;;;;;;-8.72;90.54;98316.88;5000003;28;20069;-68
2022/01/04 07:43:24;;;;;;;32.35;11.13;;;;;;;-8.62;90.91;98312.97;4983081;28;20076;-67
2022/01/04 07:45:50;;;;;;;28.10;9.30;;;;;;;-8.48;90.31;98324.59;4966326;28;20105;-68
2022/01/04 07:48:16;;;;;;;22.13;8.40;;;;;;;-8.64;88.99;98278.09;4998862;28;20045;-67
2022/01/04 07:50:42;;;;;;;33.42;10.35;;;;;;;-8.32;89.25;98325.63;4982692;28;20054;-67
2022/01/04 07:53:08;;;;;;;31.58;11.43;;;;;;;-8.75;89.10;98290.81;4999408;28;20088;-70
2022/01/04 07:55:34;;;;;;;35.13;11.85;;;;;;;-8.51;89.62;98329.06;4982770;28;20482;-67
2022/01/04 07:58:00;;;;;;;35.08;12.80;;;;;;;-8.68;89.86;98328.06;4982873;28;20041;-67
2022/01/04 08:00:27;;;;;;;33.75;10.30;;;;;;;-8.58;89.56;98314.53;5015856;28;20050;-68
2022/01/04 08:02:54;;;;;;;36.60;11.25;;;;;;;-8.50;89.08;98332.53;5014998;28;20484;-67
2022/01/04 08:05:20;;;;;;;38.20;11.23;;;;;;;-8.60;89.73;98326.81;4999787;28;20104;-68
2022/01/04 08:07:46;;;;;;;32.33;11.65;;;;;;;-8.67;89.60;98314.06;4998651;28;20053;-66
2022/01/04 08:10:12;;;;;;;30.80;9.02;;;;;;;-8.56;90.40;98323.16;5015069;28;20580;-67
2022/01/04 08:12:39;;;;;;;24.23;8.40;;;;;;;-8.35;89.52;98325.75;5006930;28;20034;-67
2022/01/04 08:15:06;;;;;;;34.38;12.23;;;;;;;-8.60;89.92;98332.06;4993125;28;20041;-66
2022/01/04 08:17:32;;;;;;;40.53;12.75;;;;;;;-8.34;89.24;98330.91;5009586;28;20470;-65
2022/01/04 08:19:58;;;;;;;36.13;10.38;;;;;;;-8.33;89.01;98323.91;4960668;28;20080;-66
2022/01/04 08:22:24;;;;;;;32.47;10.52;;;;;;;-8.45;88.24;98266.81;4982882;28;20065;-66
2022/01/04 08:24:50;;;;;;;35.92;11.80;;;;;;;-8.22;87.93;98332.16;4958874;28;20073;-65
2022/01/04 08:27:16;;;;;;;33.95;12.55;;;;;;;-8.29;88.24;98315.84;4986748;28;20519;-65
2022/01/04 08:29:42;;;;;;;28.10;10.25;;;;;;;-7.96;87.86;98338.03;5013881;28;20038;-66
2022/01/04 08:32:08;;;;;;;32.53;11.68;;;;;;;-8.19;87.57;98290.09;4975991;28;20045;-70
2022/01/04 08:34:34;;;;;;;32.33;11.57;;;;;;;-7.86;86.91;98339.28;4993146;28;20042;-65
2022/01/04 08:37:00;;;;;;;37.63;11.10;;;;;;;-7.96;85.83;98301.31;5016547;28;20068;-66
2022/01/04 08:39:26;;;;;;;36.05;11.65;;;;;;;-7.82;85.06;98314.66;4994035;28;20521;-65
2022/01/04 08:42:01;;;;;;;31.67;10.40;;;;;;;-7.80;83.86;98333.78;5003005;28;20490;-65
2022/01/04 08:44:27;;;;;;;28.23;9.88;;;;;;;-7.80;84.02;98324.13;5001462;28;20046;-67
2022/01/04 08:46:53;;;;;;;22.75;8.20;;;;;;;-8.06;84.49;98270.25;4993251;28;20072;-67
2022/01/04 08:49:19;;;;;;;24.38;8.52;;;;;;;-7.62;83.95;98330.28;4975174;28;20061;-66
2022/01/04 08:51:46;;;;;;;31.55;11.00;;;;;;;-8.14;84.83;98297.75;4975749;28;20617;-67
2022/01/04 08:54:14;;;;;;;29.58;9.07;;;;;;;-7.76;84.53;98322.22;5005026;28;20057;-67
2022/01/04 08:56:40;;;;;;;31.30;10.95;;;;;;;-7.76;84.49;98324.84;4998592;28;20049;-69
2022/01/04 08:59:08;;;;;;;29.40;10.88;;;;;;;-8.00;84.84;98332.06;5000990;28;20048;-66
2022/01/04 09:01:34;;;;;;;33.92;10.27;;;;;;;-7.88;83.83;98307.03;4958665;28;20045;-76
2022/01/04 09:04:01;;;;;;;30.27;10.45;;;;;;;-7.92;84.04;98297.63;4993235;28;20071;-66
2022/01/04 09:06:27;;;;;;;27.83;9.55;;;;;;;-7.69;83.26;98321.00;4976978;28;20163;-67
2022/01/04 09:08:55;;;;;;;31.38;10.68;;;;;;;-7.68;84.76;98337.59;4974929;28;20038;-67
2022/01/04 09:11:22;;;;;;;38.10;14.80;;;;;;;-8.13;85.21;98331.75;4995128;28;20054;-66
2022/01/04 09:13:50;;;;;;;37.45;14.38;;;;;;;-8.30;86.01;98334.25;4997213;28;20045;-67
2022/01/04 09:18:48;;;;;;;36.67;14.57;;;;;;;-8.37;87.14;98344.16;4982010;28;20541;-67
2022/01/04 09:21:21;;;;;;;32.20;13.70;;;;;;;-8.40;86.78;98338.25;5016621;28;20144;-67
2022/01/04 09:23:48;;;;;;;33.40;12.57;;;;;;;-8.35;86.27;98346.72;4964597;28;20536;-67
2022/01/04 09:26:16;;;;;;;36.15;11.98;;;;;;;-8.69;85.87;98305.44;4983140;28;20476;-67
2022/01/04 09:28:43;;;;;;;33.92;13.30;;;;;;;-8.68;86.16;98318.44;4966519;28;20564;-66
2022/01/04 09:31:09;;;;;;;33.00;12.10;;;;;;;-8.58;86.74;98334.63;4978796;28;20057;-67
2022/01/04 09:33:35;;;;;;;34.15;12.82;;;;;;;-8.60;86.55;98352.16;4981315;28;20050;-66
2022/01/04 09:36:02;;;;;;;28.45;10.50;;;;;;;-8.39;86.43;98350.41;4983428;28;20500;-67
2022/01/04 09:38:28;;;;;;;28.73;10.25;;;;;;;-8.22;86.37;98347.88;5014694;28;20045;-67
2022/01/04 09:40:55;;;;;;;34.33;15.05;;;;;;;-8.49;86.06;98360.44;4979830;28;20036;-66
2022/01/04 09:43:21;;;;;;;30.30;9.20;;;;;;;-8.22;85.57;98350.50;4990083;28;20049;-66
2022/01/04 09:45:47;;;;;;;30.75;11.57;;;;;;;-7.98;84.37;98356.44;4983786;28;20045;-67
2022/01/04 09:48:13;;;;;;;32.97;12.23;;;;;;;-8.33;85.83;98318.69;4991238;28;20759;-66
2022/01/04 09:50:40;;;;;;;37.17;14.30;;;;;;;-8.32;86.28;98354.44;4963548;28;20720;-66
2022/01/04 09:53:09;;;;;;;39.00;14.48;;;;;;;-8.35;86.54;98346.72;4979092;28;20132;-67
2022/01/04 09:55:38;;;;;;;35.25;14.65;;;;;;;-8.31;87.43;98353.50;4978178;28;20074;-66
2022/01/04 09:58:04;;;;;;;36.45;13.90;;;;;;;-8.63;86.64;98300.75;4983557;28;20069;-66
2022/01/04 10:00:31;;;;;;;37.75;13.90;;;;;;;-8.39;87.46;98345.16;5013158;28;20425;-73
2022/01/04 10:03:22;;;;;;;38.80;14.43;;;;;;;-8.39;87.42;98353.03;4962767;28;20068;-72
2022/01/04 10:05:48;;;;;;;41.30;15.65;;;;;;;-8.40;87.20;98359.19;5000547;28;20094;-68
2022/01/04 10:08:15;;;;;;;36.90;15.00;;;;;;;-8.39;87.43;98350.41;4976282;28;20041;-71
2022/01/04 10:10:42;;;;;;;44.25;16.13;;;;;;;-8.45;87.16;98355.91;4966808;28;20050;-67
2022/01/04 10:13:15;;;;;;;46.38;18.05;;;;;;;-8.84;86.99;98281.59;4981097;28;20048;-66
2022/01/04 10:15:49;;;;;;;45.85;17.65;;;;;;;-8.39;86.86;98353.03;4996909;28;20084;-68
2022/01/04 10:18:16;;;;;;;40.28;13.45;;;;;;;-8.20;86.90;98351.28;4995385;28;20033;-66
2022/01/04 10:21:12;;;;;;;35.60;13.32;;;;;;;-8.21;86.60;98352.19;5013953;28;20519;-67
2022/01/04 10:23:55;;;;;;;35.83;11.48;;;;;;;-8.07;85.74;98323.63;4996782;28;20065;-66
2022/01/04 10:26:30;;;;;;;35.97;11.77;;;;;;;-7.77;85.58;98354.63;5011044;28;20061;-66
2022/01/04 10:28:57;;;;;;;35.78;13.15;;;;;;;-7.60;84.64;98357.31;4996519;28;20065;-67
2022/01/04 10:31:23;;;;;;;37.83;14.52;;;;;;;-7.82;84.63;98330.38;4980521;28;20526;-67
2022/01/04 10:33:52;;;;;;;41.47;15.13;;;;;;;-7.87;84.55;98358.56;4964231;28;20428;-67
2022/01/04 10:36:21;;;;;;;43.28;14.55;;;;;;;-7.98;84.72;98360.81;4996113;28;20049;-67
2022/01/04 10:38:48;;;;;;;36.42;12.80;;;;;;;-8.05;84.71;98365.47;5012956;28;20114;-67
2022/01/04 10:41:22;;;;;;;36.10;13.10;;;;;;;-7.97;84.74;98373.00;5012480;28;20044;-67
2022/01/04 10:43:52;;;;;;;37.38;12.75;;;;;;;-7.69;84.70;98364.75;5011954;28;20069;-67
2022/01/04 10:46:30;;;;;;;42.75;15.05;;;;;;;-8.06;84.96;98362.00;5012390;28;20088;-66
2022/01/04 10:48:56;;;;;;;34.63;11.48;;;;;;;-7.96;85.30;98353.75;4995950;28;20069;-66
2022/01/04 10:51:22;;;;;;;38.60;13.73;;;;;;;-8.25;84.47;98312.16;5012660;28;20481;-66
2022/01/04 10:53:53;;;;;;;37.05;13.70;;;;;;;-8.13;85.13;98336.97;4995819;28;20041;-66
2022/01/04 10:56:31;;;;;;;34.72;12.68;;;;;;;-8.05;85.11;98360.22;4979895;28;20113;-66
2022/01/04 10:58:58;;;;;;;29.83;11.93;;;;;;;-8.36;85.58;98308.31;5030093;28;20140;-66
2022/01/04 11:01:28;;;;;;;36.65;13.20;;;;;;;-8.13;85.37;98352.72;5030038;28;20038;-66
2022/01/04 11:03:59;;;;;;;29.27;9.63;;;;;;;-8.07;85.52;98364.72;4996093;28;20088;-66
2022/01/04 11:06:36;;;;;;;33.72;12.63;;;;;;;-8.05;85.43;98371.56;5012209;28;20075;-66
2022/01/04 11:09:07;;;;;;;33.85;11.50;;;;;;;-8.22;85.32;98355.75;5012277;28;20047;-66
2022/01/04 11:11:33;;;;;;;36.97;12.95;;;;;;;-8.52;86.10;98319.50;5012288;28;20045;-66
2022/01/04 11:13:59;;;;;;;32.80;12.73;;;;;;;-8.26;86.20;98367.28;4979732;28;20052;-67
2022/01/04 11:16:27;;;;;;;32.60;10.68;;;;;;;-8.35;86.30;98346.72;4979274;28;20041;-67
2022/01/04 11:18:55;;;;;;;32.25;12.52;;;;;;;-8.25;86.06;98350.63;5012266;28;20458;-67
2022/01/04 11:21:28;;;;;;;30.48;11.65;;;;;;;-8.09;86.06;98367.38;4996211;28;20061;-66
2022/01/04 11:23:55;;;;;;;36.05;10.65;;;;;;;-8.01;85.92;98373.16;5012098;28;20114;-66
2022/01/04 11:26:22;;;;;;;30.10;11.23;;;;;;;-7.99;85.52;98364.38;5030130;28;20474;-64
2022/01/04 11:28:49;;;;;;;35.72;13.02;;;;;;;-8.38;85.33;98320.66;4963509;28;20064;-66